Terminal Aerodrome Forecast
Issued by NWS

Home | Current Version | Previous Version | Text Only | Print | Product List | Glossary On
Versions: 1 2 3 4 5 6 7 8 9 10 11 12
477
FTUS45 KTFX 291743
TAFHVR
TAF
KHVR 291743Z 2918/3018 24011KT P6SM SCT050 BKN100
      TEMPO 2918/2921 25015G21KT=

USA.gov is the U.S. government's official web portal to all federal, state and local government web resources and services.